Time;durP1;ratioP1;P1;durP2;ratioP2;P2;SDS_P1;SDS_P2;PMS_P1;PMS_P2;Temp;Humidity;BMP_temperature;BMP_pressure;BME280_temperature;BME280_humidity;BME280_pressure;Samples;Min_cycle;Max_cycle;Signal;HPM_P1;HPM_P2
2022/04/19 00:00:35;;;;;;;0.10;0.10;;;10.20;98.40;;;;;;5008170;28;20045;-75
2022/04/19 00:03:02;;;;;;;0.10;0.10;;;10.20;99.10;;;;;;5007990;28;20121;-75
2022/04/19 00:05:29;;;;;;;0.10;0.10;;;10.20;99.70;;;;;;5009308;28;20018;-74
2022/04/19 00:07:54;;;;;;;0.22;0.22;;;10.10;99.90;;;;;;5007780;28;20018;-75
2022/04/19 00:10:20;;;;;;;0.10;0.10;;;10.10;99.90;;;;;;4987694;28;20092;-78
2022/04/19 00:12:47;;;;;;;0.10;0.10;;;10.00;99.90;;;;;;5010278;28;20021;-76
2022/04/19 00:15:15;;;;;;;0.13;0.13;;;9.90;99.90;;;;;;4991477;28;20034;-75
2022/04/19 00:17:41;;;;;;;0.10;0.10;;;9.90;99.90;;;;;;5005872;28;20076;-74
2022/04/19 00:20:07;;;;;;;0.22;0.22;;;9.90;99.90;;;;;;5017970;28;20060;-76
2022/04/19 00:22:33;;;;;;;0.10;0.10;;;9.90;99.90;;;;;;5009427;28;20030;-78
2022/04/19 00:24:59;;;;;;;0.10;0.10;;;9.80;99.90;;;;;;5010813;28;20030;-75
2022/04/19 00:27:25;;;;;;;0.10;0.10;;;10.00;99.90;;;;;;4993315;28;20056;-78
2022/04/19 00:29:53;;;;;;;0.10;0.10;;;9.70;99.90;;;;;;5010539;28;20490;-76
2022/04/19 00:32:19;;;;;;;0.10;0.10;;;9.70;99.90;;;;;;5010520;28;20029;-76
2022/04/19 00:34:46;;;;;;;1.05;1.05;;;9.60;99.90;;;;;;5008842;28;20030;-75
2022/04/19 00:37:13;;;;;;;0.10;0.10;;;9.60;99.90;;;;;;5010073;28;20452;-74
2022/04/19 00:39:39;;;;;;;0.10;0.10;;;9.50;99.90;;;;;;5011662;28;20022;-75
2022/04/19 00:42:07;;;;;;;0.10;0.10;;;9.50;99.90;;;;;;5023074;22;20418;-69
2022/04/19 00:44:37;;;;;;;0.10;0.10;;;9.50;99.90;;;;;;5000094;28;20026;-68
2022/04/19 00:47:05;;;;;;;0.10;0.10;;;9.50;99.90;;;;;;4999587;28;20393;-68
2022/04/19 00:49:33;;;;;;;0.10;0.10;;;9.50;99.90;;;;;;5009089;28;20026;-69
2022/04/19 00:51:59;;;;;;;0.10;0.10;;;9.50;99.90;;;;;;5007733;28;20040;-68
2022/04/19 00:54:26;;;;;;;0.10;0.10;;;9.50;99.90;;;;;;4993156;28;20052;-68
2022/04/19 00:56:53;;;;;;;0.00;0.00;;;9.50;99.90;;;;;;5008796;28;20112;-69
2022/04/19 00:59:20;;;;;;;0.10;0.10;;;9.40;99.90;;;;;;5005847;28;20693;-70
2022/04/19 01:01:46;;;;;;;0.10;0.10;;;9.40;99.90;;;;;;4999203;28;20023;-70
2022/04/19 01:04:12;;;;;;;0.10;0.10;;;9.40;99.90;;;;;;5009284;28;20409;-68
2022/04/19 01:06:37;;;;;;;0.10;0.10;;;9.50;99.90;;;;;;5000026;28;20026;-68
2022/04/19 01:09:03;;;;;;;0.10;0.10;;;9.50;99.90;;;;;;5005167;28;20037;-69
2022/04/19 01:14:14;;;;;;;0.10;0.10;;;9.40;99.90;;;;;;5004329;28;20055;-69
2022/04/19 01:16:42;;;;;;;0.10;0.10;;;9.40;99.90;;;;;;4996042;28;20474;-69
2022/04/19 01:19:15;;;;;;;0.10;0.10;;;9.30;99.90;;;;;;5003861;28;20030;-71
2022/04/19 01:21:48;;;;;;;0.10;0.10;;;9.20;99.90;;;;;;4999866;28;20033;-68
2022/04/19 01:24:22;;;;;;;0.10;0.10;;;9.10;99.90;;;;;;5006969;28;20026;-71
2022/04/19 01:26:48;;;;;;;0.73;0.68;;;9.10;99.90;;;;;;5007570;28;20037;-70
2022/04/19 01:29:15;;;;;;;0.10;0.10;;;9.00;99.90;;;;;;5006048;28;20026;-71
2022/04/19 01:31:45;;;;;;;0.10;0.10;;;9.00;99.90;;;;;;4996055;28;20022;-71
2022/04/19 01:34:11;;;;;;;0.10;0.10;;;9.00;99.90;;;;;;4996335;28;20033;-71
2022/04/19 01:36:38;;;;;;;0.10;0.10;;;9.00;99.90;;;;;;4999050;28;20049;-71
2022/04/19 01:39:04;;;;;;;0.10;0.10;;;9.10;99.90;;;;;;4993994;28;20034;-71
2022/04/19 01:41:30;;;;;;;0.00;0.00;;;9.10;99.90;;;;;;5000426;28;20120;-69
2022/04/19 01:43:56;;;;;;;0.10;0.10;;;9.00;99.90;;;;;;4993919;28;20531;-69
2022/04/19 01:46:23;;;;;;;0.10;0.10;;;9.00;99.90;;;;;;4995008;28;20022;-70
2022/04/19 01:48:50;;;;;;;0.10;0.10;;;8.90;99.90;;;;;;4992699;28;20093;-72
2022/04/19 01:51:16;;;;;;;0.20;0.20;;;9.00;99.90;;;;;;4992672;28;20037;-69
2022/04/19 01:53:43;;;;;;;1.38;1.27;;;9.00;99.90;;;;;;4993838;28;20025;-69
2022/04/19 01:56:09;;;;;;;0.10;0.10;;;9.00;99.90;;;;;;4995186;28;20053;-69
2022/04/19 01:58:35;;;;;;;0.10;0.10;;;9.00;99.90;;;;;;5000648;28;20037;-71
2022/04/19 02:01:00;;;;;;;0.10;0.10;;;9.00;99.90;;;;;;4999930;28;20486;-69
2022/04/19 02:03:26;;;;;;;0.10;0.10;;;9.10;99.90;;;;;;4998226;28;20034;-70
2022/04/19 02:05:52;;;;;;;0.10;0.10;;;9.00;99.90;;;;;;4994035;28;20026;-68
2022/04/19 02:08:18;;;;;;;0.10;0.10;;;9.00;99.90;;;;;;5008941;28;20448;-70
2022/04/19 02:10:44;;;;;;;0.10;0.10;;;9.00;99.90;;;;;;4995735;28;20290;-68
2022/04/19 02:13:09;;;;;;;0.10;0.10;;;8.90;99.90;;;;;;4996470;28;20080;-69
2022/04/19 02:15:35;;;;;;;0.30;0.30;;;8.90;99.90;;;;;;4992670;28;20045;-69
2022/04/19 02:18:01;;;;;;;0.10;0.10;;;8.90;99.90;;;;;;4998684;28;20180;-71
2022/04/19 02:20:27;;;;;;;0.10;0.10;;;8.80;99.90;;;;;;4991962;28;20030;-70
2022/04/19 02:22:52;;;;;;;0.10;0.10;;;8.70;99.90;;;;;;4994557;28;20032;-70
2022/04/19 02:25:18;;;;;;;0.10;0.10;;;8.60;99.90;;;;;;5010045;28;20482;-69
2022/04/19 02:27:44;;;;;;;0.10;0.10;;;8.70;99.90;;;;;;5009017;28;20445;-69
2022/04/19 02:30:16;;;;;;;0.10;0.10;;;8.70;99.90;;;;;;5009039;28;20026;-70
2022/04/19 02:32:48;;;;;;;0.10;0.10;;;8.70;99.90;;;;;;4998704;28;20030;-69
2022/04/19 02:35:18;;;;;;;0.10;0.10;;;8.70;99.90;;;;;;4996594;28;20026;-68
2022/04/19 02:37:54;;;;;;;0.65;0.65;;;8.70;99.90;;;;;;4993928;28;20026;-71
2022/04/19 02:40:22;;;;;;;0.10;0.10;;;8.70;99.90;;;;;;4996397;28;20026;-69
2022/04/19 02:42:50;;;;;;;0.10;0.10;;;8.70;99.90;;;;;;4993894;28;20030;-71
2022/04/19 02:45:16;;;;;;;0.20;0.20;;;8.70;99.90;;;;;;4994885;28;20037;-71
2022/04/19 02:47:42;;;;;;;0.10;0.10;;;8.60;99.90;;;;;;4991538;28;20037;-69
2022/04/19 02:50:08;;;;;;;0.65;0.65;;;8.50;99.90;;;;;;4995661;28;20021;-69
2022/04/19 02:52:34;;;;;;;0.10;0.10;;;8.50;99.90;;;;;;4992619;28;20069;-69
2022/04/19 02:55:00;;;;;;;0.10;0.10;;;8.50;99.90;;;;;;4993727;28;20109;-69
2022/04/19 02:57:26;;;;;;;0.10;0.10;;;8.50;99.90;;;;;;4993612;28;20100;-68
2022/04/19 02:59:53;;;;;;;0.10;0.10;;;8.50;99.90;;;;;;4995778;28;20489;-71
2022/04/19 03:02:19;;;;;;;0.10;0.10;;;8.40;99.90;;;;;;4992917;28;20544;-69
2022/04/19 03:04:45;;;;;;;0.10;0.10;;;8.50;99.90;;;;;;4995795;28;20040;-69
2022/04/19 03:07:14;;;;;;;0.10;0.10;;;8.40;99.90;;;;;;4999551;28;20504;-70
2022/04/19 03:09:41;;;;;;;0.13;0.13;;;8.40;99.90;;;;;;4995646;28;20033;-69
2022/04/19 03:12:10;;;;;;;0.10;0.10;;;8.40;99.90;;;;;;5002273;28;20032;-70
2022/04/19 03:14:36;;;;;;;0.10;0.10;;;8.30;99.90;;;;;;4992466;28;20033;-69
2022/04/19 03:17:02;;;;;;;0.10;0.10;;;8.30;99.90;;;;;;4991401;28;20042;-69
2022/04/19 03:19:27;;;;;;;0.10;0.10;;;8.20;99.90;;;;;;4992475;28;20113;-69
2022/04/19 03:21:53;;;;;;;1.55;1.48;;;8.10;99.90;;;;;;4992241;28;20446;-70
2022/04/19 03:29:47;;;;;;;0.10;0.10;;;7.80;99.90;;;;;;4996010;28;19925;-68
2022/04/19 03:32:12;;;;;;;0.10;0.10;;;7.80;99.90;;;;;;4993178;28;20026;-69
2022/04/19 03:34:39;;;;;;;0.22;0.22;;;7.80;99.90;;;;;;4993277;28;20481;-71
2022/04/19 03:37:05;;;;;;;1.30;1.30;;;7.80;99.90;;;;;;4991246;28;20030;-70
2022/04/19 03:39:31;;;;;;;0.10;0.10;;;7.80;99.90;;;;;;4993606;28;20488;-70
2022/04/19 03:41:57;;;;;;;0.10;0.10;;;7.70;99.90;;;;;;4996365;28;20054;-68
2022/04/19 03:44:25;;;;;;;0.20;0.20;;;7.70;99.90;;;;;;4994323;28;20152;-69
2022/04/19 03:47:07;;;;;;;0.10;0.10;;;7.60;99.90;;;;;;4979896;28;20636;-68
2022/04/19 03:49:33;;;;;;;0.30;0.30;;;7.70;99.90;;;;;;4989513;28;20049;-69
2022/04/19 03:51:59;;;;;;;0.10;0.10;;;7.80;99.90;;;;;;4993963;28;20045;-69
2022/04/19 03:54:24;;;;;;;0.43;0.43;;;7.80;99.90;;;;;;4994005;28;20053;-70
2022/04/19 03:56:50;;;;;;;0.10;0.10;;;7.80;99.90;;;;;;4999349;28;21260;-69
2022/04/19 03:59:16;;;;;;;0.10;0.10;;;7.80;99.90;;;;;;4998617;28;20473;-68
2022/04/19 04:01:42;;;;;;;0.35;0.35;;;7.70;99.90;;;;;;5002408;28;20072;-69
2022/04/19 04:04:08;;;;;;;0.10;0.10;;;7.60;99.90;;;;;;4998676;28;20037;-70
2022/04/19 04:06:37;;;;;;;0.10;0.10;;;7.50;99.90;;;;;;5003255;28;20031;-69
2022/04/19 04:09:06;;;;;;;0.10;0.10;;;7.50;99.90;;;;;;5012710;28;20018;-69
2022/04/19 04:11:32;;;;;;;0.47;0.25;;;7.50;99.90;;;;;;5010319;28;20093;-70
2022/04/19 04:13:58;;;;;;;0.10;0.10;;;7.60;99.90;;;;;;5012428;28;20089;-69
2022/04/19 04:16:24;;;;;;;0.10;0.10;;;7.60;99.90;;;;;;5011638;28;20504;-69
2022/04/19 04:18:49;;;;;;;0.10;0.10;;;7.70;99.90;;;;;;5002635;28;22109;-69
2022/04/19 04:21:15;;;;;;;0.10;0.10;;;7.60;99.90;;;;;;4999357;28;20103;-71
2022/04/19 04:23:41;;;;;;;;;;;7.70;99.90;;;;;;4996887;28;20030;-69
2022/04/19 04:26:06;;;;;;;;;;;7.70;99.90;;;;;;5001400;28;20015;-70
2022/04/19 04:28:32;;;;;;;;;;;7.70;99.90;;;;;;4995190;28;19977;-70
2022/04/19 04:30:57;;;;;;;;;;;7.70;99.90;;;;;;5000317;28;19917;-71
2022/04/19 04:33:23;;;;;;;;;;;7.70;99.90;;;;;;4998430;28;19913;-70
2022/04/19 04:35:48;;;;;;;;;;;7.60;99.90;;;;;;5003627;28;19910;-71
2022/04/19 04:38:14;;;;;;;;;;;7.60;99.90;;;;;;5006703;28;19913;-71
2022/04/19 04:40:39;;;;;;;;;;;7.50;99.90;;;;;;4995457;28;20365;-70
2022/04/19 04:43:05;;;;;;;;;;;7.50;99.90;;;;;;4994389;28;20383;-69
2022/04/19 04:45:30;;;;;;;;;;;7.50;99.90;;;;;;5001617;28;19917;-70
2022/04/19 04:50:40;;;;;;;;;;;7.60;99.90;;;;;;4994090;28;20379;-68
2022/04/19 04:53:05;;;;;;;;;;;7.50;99.90;;;;;;4993775;28;20365;-68
2022/04/19 04:55:31;;;;;;;;;;;7.50;99.90;;;;;;4996932;28;19913;-69
2022/04/19 04:57:59;;;;;;;;;;;7.50;99.90;;;;;;4996768;28;19916;-69
2022/04/19 05:00:27;;;;;;;;;;;7.50;99.90;;;;;;4992656;28;19960;-69
2022/04/19 05:02:53;;;;;;;;;;;7.50;99.90;;;;;;4997825;28;20377;-68
2022/04/19 05:05:19;;;;;;;;;;;7.50;99.90;;;;;;4993553;28;19913;-70
2022/04/19 05:07:44;;;;;;;;;;;7.40;99.90;;;;;;4996211;28;20761;-70
2022/04/19 05:10:10;;;;;;;;;;;7.40;99.90;;;;;;4995831;28;19920;-70
2022/04/19 05:12:35;;;;;;;;;;;7.50;99.90;;;;;;4994410;28;19913;-71
2022/04/19 05:15:01;;;;;;;;;;;7.60;99.90;;;;;;4994358;28;19913;-69
2022/04/19 05:17:27;;;;;;;;;;;7.60;99.90;;;;;;4997262;28;19920;-71
2022/04/19 05:19:55;;;;;;;;;;;7.60;99.90;;;;;;4997931;28;20007;-69
2022/04/19 05:22:21;;;;;;;;;;;7.70;99.90;;;;;;4995550;28;20612;-71
2022/04/19 05:24:47;;;;;;;;;;;7.70;99.90;;;;;;5002498;28;19933;-68
2022/04/19 05:27:12;;;;;;;;;;;7.70;99.90;;;;;;4996912;28;19913;-71
2022/04/19 05:29:38;;;;;;;;;;;7.60;99.90;;;;;;4994001;28;19979;-70
2022/04/19 05:32:03;;;;;;;;;;;8.50;99.90;;;;;;4993247;28;19973;-69
2022/04/19 05:34:29;;;;;;;;;;;7.80;99.90;;;;;;5002183;28;19997;-71
2022/04/19 05:36:54;;;;;;;;;;;7.90;99.90;;;;;;4993680;28;20073;-69
2022/04/19 05:39:20;;;;;;;;;;;7.80;99.90;;;;;;4994300;28;20629;-71
2022/04/19 05:41:45;;;;;;;;;;;7.90;99.90;;;;;;4992012;28;20408;-70
2022/04/19 05:44:11;;;;;;;0.10;0.10;;;8.00;99.90;;;;;;4994124;28;20039;-71
2022/04/19 05:46:37;;;;;;;1.33;1.23;;;8.00;99.90;;;;;;4992072;28;20109;-68
2022/04/19 05:49:06;;;;;;;0.10;0.10;;;8.00;99.90;;;;;;5000749;28;20037;-69
2022/04/19 05:51:32;;;;;;;0.20;0.20;;;8.00;99.90;;;;;;4997002;28;20026;-69
2022/04/19 05:53:58;;;;;;;0.10;0.10;;;8.00;99.90;;;;;;4994717;28;20207;-69
2022/04/19 05:56:24;;;;;;;0.10;0.10;;;8.10;99.90;;;;;;4993840;28;20477;-74
2022/04/19 05:58:49;;;;;;;0.30;0.30;;;8.10;99.90;;;;;;5000964;28;20042;-71
2022/04/19 06:01:15;;;;;;;0.10;0.10;;;8.20;99.90;;;;;;4992433;28;20034;-70
2022/04/19 06:06:26;;;;;;;0.10;0.10;;;8.30;99.90;;;;;;4998761;28;20053;-72
2022/04/19 06:08:53;;;;;;;0.10;0.10;;;8.30;99.90;;;;;;5003990;28;20109;-73
2022/04/19 06:11:19;;;;;;;0.10;0.10;;;8.40;99.90;;;;;;4995072;28;20087;-70
2022/04/19 06:13:45;;;;;;;0.10;0.10;;;8.40;99.90;;;;;;4999398;28;21291;-70
2022/04/19 06:16:11;;;;;;;0.63;0.63;;;8.50;99.90;;;;;;4996340;28;20405;-69
2022/04/19 06:18:36;;;;;;;0.10;0.10;;;8.70;99.90;;;;;;4992911;28;20041;-69
2022/04/19 06:21:04;;;;;;;0.17;0.17;;;8.70;99.90;;;;;;4997160;28;20747;-70
2022/04/19 06:23:30;;;;;;;1.55;1.55;;;8.70;99.90;;;;;;4998247;28;20029;-69
2022/04/19 06:25:56;;;;;;;0.20;0.20;;;8.90;99.90;;;;;;5004504;28;20026;-69
2022/04/19 06:28:22;;;;;;;0.10;0.10;;;8.90;99.90;;;;;;4995373;28;20026;-70
2022/04/19 06:30:48;;;;;;;0.10;0.10;;;9.10;99.90;;;;;;4996612;28;20031;-71
2022/04/19 06:33:14;;;;;;;0.10;0.10;;;9.10;99.90;;;;;;4977093;28;20022;-69
2022/04/19 06:35:39;;;;;;;0.17;0.17;;;9.20;99.90;;;;;;4997030;28;20498;-69
2022/04/19 06:38:05;;;;;;;0.10;0.10;;;9.30;99.90;;;;;;4991376;28;20034;-69
2022/04/19 06:40:32;;;;;;;3.13;2.92;;;9.40;99.90;;;;;;4993363;28;20030;-71
2022/04/19 06:42:57;;;;;;;0.10;0.10;;;9.20;99.90;;;;;;4992625;28;20504;-72
2022/04/19 06:45:24;;;;;;;0.10;0.10;;;9.40;99.90;;;;;;4995710;28;20030;-71
2022/04/19 06:48:02;;;;;;;0.10;0.10;;;9.50;99.90;;;;;;4995146;28;20040;-71
2022/04/19 06:50:29;;;;;;;0.10;0.10;;;9.50;99.90;;;;;;4992935;28;20069;-74
2022/04/19 06:52:55;;;;;;;0.10;0.10;;;9.70;99.90;;;;;;4993115;28;20087;-69
2022/04/19 06:55:21;;;;;;;0.35;0.35;;;9.70;99.90;;;;;;4994093;28;20029;-70
2022/04/19 06:57:47;;;;;;;0.10;0.10;;;9.80;99.90;;;;;;4998619;28;20105;-70
2022/04/19 07:00:15;;;;;;;0.10;0.10;;;9.80;99.90;;;;;;4992646;28;20029;-73
2022/04/19 07:02:41;;;;;;;0.10;0.10;;;9.90;99.90;;;;;;4990085;28;20034;-69
2022/04/19 07:05:07;;;;;;;0.10;0.10;;;10.10;99.90;;;;;;4992574;28;20030;-71
2022/04/19 07:07:33;;;;;;;0.10;0.10;;;10.00;99.90;;;;;;4996679;28;20565;-71
2022/04/19 07:09:59;;;;;;;0.10;0.10;;;10.10;99.90;;;;;;4992891;28;20092;-71
2022/04/19 07:12:24;;;;;;;0.10;0.10;;;10.10;99.90;;;;;;4995044;28;20117;-70
2022/04/19 07:14:50;;;;;;;0.30;0.30;;;10.10;99.90;;;;;;4991399;28;20040;-72
2022/04/19 07:17:16;;;;;;;0.20;0.20;;;10.20;99.90;;;;;;4990343;28;20112;-71
2022/04/19 07:28:04;;;;;;;0.10;0.10;;;10.60;99.90;;;;;;4993369;28;20036;-70
2022/04/19 07:30:32;;;;;;;0.10;0.10;;;10.80;99.90;;;;;;4996310;28;20026;-70
2022/04/19 07:32:58;;;;;;;0.10;0.10;;;10.90;99.90;;;;;;5006410;28;20026;-71
2022/04/19 07:35:24;;;;;;;0.10;0.10;;;11.00;99.90;;;;;;5007202;28;20024;-71
2022/04/19 07:37:51;;;;;;;0.20;0.20;;;11.10;99.90;;;;;;4999878;28;20648;-70
2022/04/19 07:40:17;;;;;;;0.10;0.10;;;11.20;99.90;;;;;;4997350;28;20136;-72
2022/04/19 07:42:42;;;;;;;0.17;0.17;;;11.40;99.90;;;;;;5004052;28;20109;-70
2022/04/19 07:45:09;;;;;;;0.10;0.10;;;11.40;99.90;;;;;;5004790;28;20490;-72
2022/04/19 07:47:35;;;;;;;0.10;0.10;;;11.40;99.90;;;;;;5006096;28;20022;-69
2022/04/19 07:50:01;;;;;;;0.10;0.10;;;11.50;99.90;;;;;;4995541;28;20528;-71
2022/04/19 07:52:26;;;;;;;0.10;0.10;;;11.80;99.90;;;;;;5007314;28;20075;-69
2022/04/19 07:54:52;;;;;;;0.43;0.43;;;11.80;99.90;;;;;;4996493;28;20480;-71
2022/04/19 07:57:21;;;;;;;0.10;0.10;;;11.90;99.90;;;;;;5007861;28;20101;-70
2022/04/19 07:59:47;;;;;;;0.10;0.10;;;12.10;99.90;;;;;;4996309;28;20026;-69
2022/04/19 08:02:14;;;;;;;0.10;0.10;;;12.30;99.90;;;;;;5010053;28;20117;-70
2022/04/19 08:04:40;;;;;;;0.10;0.10;;;12.30;99.90;;;;;;5002775;28;20113;-70
2022/04/19 08:07:06;;;;;;;0.10;0.10;;;12.30;99.90;;;;;;5004499;28;20030;-70
2022/04/19 08:09:32;;;;;;;0.10;0.10;;;12.40;99.90;;;;;;5006149;28;20109;-71
2022/04/19 08:11:59;;;;;;;0.10;0.10;;;12.50;99.90;;;;;;5008563;28;20033;-71
2022/04/19 08:14:24;;;;;;;0.10;0.10;;;12.60;99.90;;;;;;5010620;28;20497;-70
2022/04/19 08:16:50;;;;;;;0.45;0.45;;;12.70;99.90;;;;;;5003236;28;20030;-72
2022/04/19 08:19:16;;;;;;;0.10;0.10;;;12.70;99.90;;;;;;5010892;28;20506;-70
2022/04/19 08:21:42;;;;;;;0.70;0.70;;;12.80;99.90;;;;;;5007494;28;20099;-69
2022/04/19 08:24:07;;;;;;;0.10;0.10;;;12.90;99.80;;;;;;5008600;28;20489;-69
2022/04/19 08:26:33;;;;;;;0.10;0.10;;;13.00;99.90;;;;;;5003125;28;20541;-70
2022/04/19 08:28:59;;;;;;;0.75;0.75;;;13.10;98.30;;;;;;5009612;28;20033;-70
2022/04/19 08:31:24;;;;;;;0.10;0.10;;;13.20;96.70;;;;;;5006224;28;20072;-70
2022/04/19 08:33:50;;;;;;;0.10;0.10;;;13.30;95.40;;;;;;5006731;28;20517;-70
2022/04/19 08:36:15;;;;;;;0.40;0.40;;;13.30;94.00;;;;;;5004450;28;20023;-73
2022/04/19 08:38:41;;;;;;;0.10;0.10;;;13.40;93.80;;;;;;5004715;28;20037;-70
2022/04/19 08:41:07;;;;;;;0.10;0.10;;;13.50;88.70;;;;;;5006105;28;20112;-69
2022/04/19 08:43:34;;;;;;;0.00;0.00;;;13.60;88.40;;;;;;5001979;28;20041;-69
2022/04/19 08:46:01;;;;;;;1.27;1.27;;;13.60;84.90;;;;;;5011866;28;20117;-74
2022/04/19 08:48:27;;;;;;;0.52;0.52;;;13.70;87.50;;;;;;4992350;28;20025;-73
2022/04/19 08:50:56;;;;;;;0.10;0.10;;;13.80;85.90;;;;;;5002672;28;20080;-70
2022/04/19 08:58:52;;;;;;;0.20;0.20;;;14.20;82.60;;;;;;5007574;28;20088;-71
2022/04/19 09:01:18;;;;;;;0.40;0.40;;;14.30;82.00;;;;;;5008354;28;20483;-70
2022/04/19 09:03:44;;;;;;;0.10;0.10;;;14.40;80.20;;;;;;5008352;28;20034;-71
2022/04/19 09:06:10;;;;;;;0.20;0.20;;;14.40;77.70;;;;;;5003299;28;20022;-69
2022/04/19 09:08:35;;;;;;;0.10;0.10;;;14.40;76.30;;;;;;5000636;28;20022;-70
2022/04/19 09:11:06;;;;;;;0.10;0.10;;;14.60;77.20;;;;;;5001782;28;20026;-69
2022/04/19 09:13:33;;;;;;;0.10;0.10;;;14.70;74.30;;;;;;5010094;28;20025;-70
2022/04/19 09:16:06;;;;;;;0.10;0.10;;;14.70;74.40;;;;;;5003809;28;20099;-71
2022/04/19 09:18:34;;;;;;;;;;;14.80;74.60;;;;;;5009141;28;20041;-70
2022/04/19 09:21:01;;;;;;;0.10;0.10;;;14.90;75.40;;;;;;5010239;28;19964;-72
2022/04/19 09:23:31;;;;;;;0.10;0.10;;;15.00;73.40;;;;;;5008715;28;20041;-71
2022/04/19 09:26:05;;;;;;;0.10;0.10;;;15.10;71.80;;;;;;5000683;28;20529;-73
2022/04/19 09:28:34;;;;;;;0.10;0.10;;;15.20;70.60;;;;;;4995277;28;20034;-71
2022/04/19 09:31:01;;;;;;;0.10;0.10;;;15.40;70.50;;;;;;5004055;28;20096;-67
2022/04/19 09:33:30;;;;;;;0.10;0.10;;;15.40;66.80;;;;;;4995519;28;20056;-67
2022/04/19 09:35:58;;;;;;;0.30;0.30;;;15.60;66.60;;;;;;4997800;28;20105;-66
2022/04/19 09:38:43;;;;;;;0.08;0.08;;;15.70;66.80;;;;;;5003864;28;20029;-67
2022/04/19 09:41:11;;;;;;;0.10;0.10;;;15.80;64.50;;;;;;4989709;28;20082;-67
2022/04/19 09:43:37;;;;;;;0.10;0.10;;;15.90;64.30;;;;;;5002867;28;20108;-63
2022/04/19 09:46:04;;;;;;;0.47;0.45;;;15.80;62.50;;;;;;5000873;28;20478;-67
2022/04/19 09:48:35;;;;;;;0.20;0.20;;;15.80;62.30;;;;;;4995459;28;20041;-68
2022/04/19 09:51:05;;;;;;;0.10;0.10;;;15.80;63.10;;;;;;5002113;28;20030;-67
2022/04/19 09:53:53;;;;;;;0.10;0.10;;;15.80;63.80;;;;;;5007827;28;20037;-67
2022/04/19 09:56:20;;;;;;;0.13;0.13;;;15.90;64.70;;;;;;4992493;28;20026;-65
2022/04/19 09:58:50;;;;;;;0.10;0.10;;;16.10;63.10;;;;;;5002526;28;20030;-66
2022/04/19 10:09:35;;;;;;;0.10;0.10;;;16.60;59.80;;;;;;5001271;28;20037;-67
2022/04/19 10:12:02;;;;;;;0.10;0.10;;;16.30;59.80;;;;;;4998979;28;20010;-66
2022/04/19 10:14:30;;;;;;;0.10;0.10;;;16.50;59.90;;;;;;5000464;28;20029;-67
2022/04/19 10:16:58;;;;;;;0.10;0.10;;;16.60;57.60;;;;;;4999133;28;20522;-67
2022/04/19 10:19:24;;;;;;;0.10;0.10;;;16.50;57.90;;;;;;5008054;28;20168;-68
2022/04/19 10:21:52;;;;;;;0.10;0.10;;;16.50;57.30;;;;;;5000036;28;20048;-66
2022/04/19 10:24:19;;;;;;;0.10;0.10;;;16.50;57.40;;;;;;4996124;28;20033;-66
2022/04/19 10:26:46;;;;;;;0.10;0.10;;;16.60;56.60;;;;;;5005044;28;20026;-67
2022/04/19 10:29:23;;;;;;;0.10;0.10;;;16.70;55.80;;;;;;5003453;28;20018;-68
2022/04/19 10:32:02;;;;;;;0.10;0.10;;;16.60;54.10;;;;;;5004073;28;20081;-66
2022/04/19 10:34:33;;;;;;;0.00;0.00;;;16.60;53.60;;;;;;4997787;28;20065;-68
2022/04/19 10:37:11;;;;;;;1.27;1.27;;;16.70;51.80;;;;;;5000949;28;20034;-66
2022/04/19 10:40:04;;;;;;;0.10;0.10;;;16.60;50.90;;;;;;5002120;28;20030;-66
2022/04/19 10:42:37;;;;;;;0.10;0.10;;;16.70;50.80;;;;;;5004475;28;20029;-68
2022/04/19 10:45:11;;;;;;;0.00;0.00;;;16.90;49.70;;;;;;5002688;28;20563;-67
2022/04/19 10:47:57;;;;;;;0.00;0.00;;;17.00;50.90;;;;;;5003796;28;20049;-68
2022/04/19 10:50:26;;;;;;;0.28;0.28;;;16.80;50.80;;;;;;4996126;28;20508;-67
2022/04/19 10:52:57;;;;;;;0.10;0.10;;;16.60;51.10;;;;;;5005096;28;20078;-68
2022/04/19 10:55:26;;;;;;;0.10;0.10;;;16.70;51.20;;;;;;4999768;28;20529;-69
2022/04/19 10:58:20;;;;;;;0.10;0.10;;;16.80;51.60;;;;;;4994556;28;20398;-66
2022/04/19 11:00:56;;;;;;;0.10;0.10;;;17.10;51.50;;;;;;5002923;28;20374;-67
2022/04/19 11:03:34;;;;;;;0.10;0.10;;;17.10;50.80;;;;;;5007932;28;20048;-68
2022/04/19 11:06:02;;;;;;;0.00;0.00;;;17.20;51.20;;;;;;5007038;28;20112;-66
2022/04/19 11:08:31;;;;;;;0.10;0.10;;;17.20;51.10;;;;;;4989475;28;20014;-67
2022/04/19 11:11:02;;;;;;;0.10;0.10;;;17.20;51.30;;;;;;4993227;28;20084;-68
2022/04/19 11:13:39;;;;;;;0.10;0.10;;;17.20;50.30;;;;;;5001329;28;20160;-66
2022/04/19 11:16:05;;;;;;;0.10;0.10;;;17.00;49.40;;;;;;5002183;28;20037;-67
2022/04/19 11:18:58;;;;;;;0.25;0.25;;;16.80;49.70;;;;;;4998378;28;20033;-67
2022/04/19 11:21:48;;;;;;;0.10;0.10;;;16.70;50.00;;;;;;4985591;28;20121;-65
2022/04/19 11:24:53;;;;;;;0.15;0.15;;;16.90;49.90;;;;;;4994962;28;20115;-66
2022/04/19 11:27:19;;;;;;;0.10;0.10;;;17.10;49.70;;;;;;5004025;28;20044;-66
2022/04/19 11:29:49;;;;;;;0.10;0.10;;;17.30;49.80;;;;;;4997853;28;20034;-66
2022/04/19 11:32:22;;;;;;;0.10;0.10;;;17.40;49.40;;;;;;5002282;28;20116;-67
2022/04/19 11:35:04;;;;;;;0.70;0.70;;;17.30;49.30;;;;;;5000059;28;20113;-69
2022/04/19 11:37:30;;;;;;;0.10;0.10;;;17.30;49.20;;;;;;4999153;28;20033;-72
2022/04/19 11:48:36;;;;;;;0.20;0.20;;;17.20;47.90;;;;;;5004765;28;20424;-65
2022/04/19 11:51:07;;;;;;;0.10;0.10;;;17.10;48.20;;;;;;4990710;28;20026;-66
2022/04/19 11:53:32;;;;;;;0.10;0.10;;;17.30;47.10;;;;;;5005898;28;20026;-65
2022/04/19 11:55:59;;;;;;;0.00;0.00;;;17.30;48.30;;;;;;5005822;28;20099;-66
2022/04/19 11:58:25;;;;;;;0.20;0.20;;;17.30;47.70;;;;;;4998732;28;20028;-65
2022/04/19 12:01:03;;;;;;;0.10;0.10;;;17.30;47.60;;;;;;4995252;28;20034;-67
2022/04/19 12:03:37;;;;;;;0.40;0.40;;;17.30;47.70;;;;;;5007231;28;20029;-66
2022/04/19 12:06:19;;;;;;;0.10;0.10;;;17.30;48.20;;;;;;5003266;28;20057;-66
2022/04/19 12:08:53;;;;;;;0.07;0.07;;;17.40;48.00;;;;;;5000496;28;20033;-65
2022/04/19 12:11:25;;;;;;;;;;;17.40;46.50;;;;;;4996804;28;20050;-65
2022/04/19 12:13:51;;;;;;;0.10;0.10;;;17.40;46.30;;;;;;5006905;28;19909;-66
2022/04/19 12:16:39;;;;;;;0.10;0.10;;;17.40;47.20;;;;;;5000181;28;20397;-66
2022/04/19 12:19:07;;;;;;;0.20;0.20;;;17.50;46.80;;;;;;5003556;28;20048;-67
2022/04/19 12:21:38;;;;;;;0.10;0.10;;;17.40;47.00;;;;;;5009984;28;20478;-65
2022/04/19 12:24:05;;;;;;;0.10;0.10;;;17.40;47.70;;;;;;5003891;28;20034;-66
2022/04/19 12:26:31;;;;;;;0.10;0.10;;;17.30;47.50;;;;;;5007193;28;20034;-66
2022/04/19 12:29:08;;;;;;;0.00;0.00;;;17.30;47.80;;;;;;5008546;28;20036;-69
2022/04/19 12:31:38;;;;;;;0.10;0.10;;;17.40;47.40;;;;;;4997847;28;20033;-67
2022/04/19 12:34:04;;;;;;;1.80;1.52;;;17.60;47.00;;;;;;5002039;28;20428;-64
2022/04/19 12:36:48;;;;;;;0.10;0.10;;;17.70;47.10;;;;;;5002725;28;20030;-70
2022/04/19 12:39:14;;;;;;;0.10;0.10;;;18.10;46.80;;;;;;5006774;28;20021;-66
2022/04/19 12:41:45;;;;;;;0.00;0.00;;;18.60;46.30;;;;;;5002533;28;20026;-65
2022/04/19 12:44:16;;;;;;;0.10;0.10;;;18.50;45.70;;;;;;5007000;28;20030;-66
2022/04/19 12:46:48;;;;;;;0.15;0.15;;;18.70;45.70;;;;;;4998526;28;20034;-66
2022/04/19 12:49:30;;;;;;;0.10;0.10;;;18.70;45.10;;;;;;5003189;28;20108;-66
2022/04/19 12:52:08;;;;;;;0.10;0.10;;;19.50;44.40;;;;;;5002448;28;20033;-70
2022/04/19 12:54:36;;;;;;;0.00;0.00;;;21.30;42.80;;;;;;4999747;28;20116;-66
2022/04/19 12:57:04;;;;;;;0.00;0.00;;;22.30;41.50;;;;;;4999088;28;20088;-66
2022/04/19 12:59:32;;;;;;;0.00;0.00;;;23.80;39.10;;;;;;5004215;28;20109;-65
2022/04/19 13:01:58;;;;;;;0.00;0.00;;;24.10;38.40;;;;;;4998402;28;20470;-68
2022/04/19 13:04:24;;;;;;;0.00;0.00;;;25.00;37.70;;;;;;5004909;28;20529;-65
2022/04/19 13:12:22;;;;;;;0.08;0.08;;;26.00;36.00;;;;;;5009094;28;20041;-67
2022/04/19 13:14:49;;;;;;;0.00;0.00;;;25.50;36.10;;;;;;5001139;28;20021;-66
2022/04/19 13:17:16;;;;;;;0.00;0.00;;;25.60;36.60;;;;;;5002019;28;20045;-67
2022/04/19 13:19:43;;;;;;;0.00;0.00;;;26.00;37.10;;;;;;5007988;28;20082;-65
2022/04/19 13:22:09;;;;;;;0.00;0.00;;;26.40;34.70;;;;;;5008101;28;20069;-65
2022/04/19 13:24:39;;;;;;;0.17;0.17;;;26.70;34.50;;;;;;5004196;28;20116;-66
2022/04/19 13:27:06;;;;;;;0.00;0.00;;;26.90;34.70;;;;;;5006919;28;20493;-67
2022/04/19 13:29:33;;;;;;;0.75;0.75;;;26.50;34.90;;;;;;5003496;28;20065;-66
2022/04/19 13:32:00;;;;;;;0.00;0.00;;;26.20;34.60;;;;;;5001735;28;20038;-67
2022/04/19 13:34:27;;;;;;;0.00;0.00;;;26.10;35.20;;;;;;5009172;28;20045;-65
2022/04/19 13:36:55;;;;;;;0.00;0.00;;;26.50;34.70;;;;;;5009231;28;20022;-70
2022/04/19 13:39:21;;;;;;;0.00;0.00;;;27.30;34.00;;;;;;4992529;28;20455;-66
2022/04/19 13:41:46;;;;;;;0.00;0.00;;;27.90;33.70;;;;;;4990351;28;20089;-67
2022/04/19 13:44:12;;;;;;;0.00;0.00;;;28.10;33.80;;;;;;5003428;28;20032;-66
2022/04/19 13:46:41;;;;;;;0.10;0.10;;;27.90;32.70;;;;;;5000829;28;20026;-68
2022/04/19 13:49:08;;;;;;;0.00;0.00;;;27.20;33.70;;;;;;5008222;28;20026;-70
2022/04/19 13:51:35;;;;;;;0.00;0.00;;;27.80;33.10;;;;;;5007333;28;20018;-68
2022/04/19 13:54:02;;;;;;;0.00;0.00;;;27.90;33.10;;;;;;5003101;28;20053;-67